D/T METAR WX W/DIR W/SPE G/SPE TEMP DEWP
23/03/19 12:20 EGKA 231220Z 03009KT 9999 BKN021 12/08 Q1031 NNE (30°) 10.4mph 12°C 8°C
23/03/19 11:50 EGKA 231150Z 36008KT 8000 SCT015 BKN020 11/09 Q1031 N (360°) 9.2mph 11°C 9°C
23/03/19 11:20 EGKA 231120Z 36008KT 8000 SCT015 BKN020 11/09 Q1031 N (360°) 9.2mph 11°C 9°C
23/03/19 10:50 EGKA 231050Z 34008KT 8000 SCT015 BKN035 12/09 Q1031 NNW (340°) 9.2mph 12°C 9°C
23/03/19 10:20 EGKA 231020Z 34008KT 8000 SCT015 BKN035 12/09 Q1031 NNW (340°) 9.2mph 12°C 9°C
23/03/19 09:50 EGKA 230950Z 36006KT 7000 FEW012 BKN034 11/09 Q1031 N (360°) 6.9mph 11°C 9°C
23/03/19 09:20 EGKA 230920Z 36006KT 6000 BKN030 10/09 Q1031 N (360°) 6.9mph 10°C 9°C
23/03/19 08:50 EGKA 230850Z 35008KT 6000 BKN028 10/08 Q1031 N (350°) 9.2mph 10°C 8°C
22/03/19 19:50 EGKA 221950Z 00000KT 9999 BKN018 09/08 Q1028 N (0°) 9°C 8°C
22/03/19 19:20 EGKA 221920Z 25003KT 7000 BKN020 09/08 Q1028 WSW (250°) 3.5mph 9°C 8°C
22/03/19 18:50 EGKA 221850Z 25004KT 6000 FEW012 BKN020 09/08 Q1028 WSW (250°) 4.6mph 9°C 8°C
22/03/19 18:20 EGKA 221820Z 25005KT 5000 HZ SCT010 BKN021 09/08 Q1028 HZ WSW (250°) 5.8mph 9°C 8°C
22/03/19 17:50 EGKA 221750Z 23005KT 3800 HZ FEW008 BKN010 09/08 Q1027 HZ SW (230°) 5.8mph 9°C 8°C
22/03/19 17:20 EGKA 221720Z 22008KT 3500 HZ FEW010 BKN014 09/08 Q1027 HZ SW (220°) 9.2mph 9°C 8°C
22/03/19 16:50 EGKA 221650Z 22007KT 4000 HZ FEW009 BKN012 09/08 Q1027 HZ SW (220°) 8.1mph 9°C 8°C
22/03/19 16:20 EGKA 221620Z 21008KT 4000 HZ FEW012 BKN018 10/08 Q1027 HZ SSW (210°) 9.2mph 10°C 8°C
22/03/19 15:50 EGKA 221550Z 21007KT 4000 HZ FEW012 BKN018 10/08 Q1027 HZ SSW (210°) 8.1mph 10°C 8°C
22/03/19 15:20 EGKA 221520Z 22008KT 3500 HZ SCT011 BKN018 10/08 Q1028 HZ SW (220°) 9.2mph 10°C 8°C
22/03/19 14:20 EGKA 221420Z 21008KT 3500 HZ FEW008 BKN016 10/08 Q1028 HZ SSW (210°) 9.2mph 10°C 8°C
22/03/19 13:50 EGKA 221350Z 21007KT 3200 HZ FEW008 BKN013 10/08 Q1028 HZ SSW (210°) 8.1mph 10°C 8°C
22/03/19 13:20 EGKA 221320Z 19007KT 3800 HZ FEW009 BKN013 10/08 Q1028 HZ S (190°) 8.1mph 10°C 8°C
22/03/19 12:50 EGKA 221250Z 19007KT 4000 HZ FEW009 BKN013 10/08 Q1028 HZ S (190°) 8.1mph 10°C 8°C
22/03/19 12:20 EGKA 221220Z 19007KT 4000 HZ BKN013 10/08 Q1029 HZ S (190°) 8.1mph 10°C 8°C
22/03/19 11:50 EGKA 221150Z 20007KT 4000 HZ FEW009 BKN013 10/08 Q1029 HZ SSW (200°) 8.1mph 10°C 8°C
22/03/19 11:20 EGKA 221120Z 21008KT 4000 HZ FEW009 SCT013 10/08 Q1029 HZ SSW (210°) 9.2mph 10°C 8°C
22/03/19 10:50 EGKA 221050Z 22007KT 6000 BKN014 10/08 Q1029 SW (220°) 8.1mph 10°C 8°C
22/03/19 10:20 EGKA 221020Z 22008KT 6000 BKN013 10/07 Q1029 SW (220°) 9.2mph 10°C 7°C
22/03/19 09:50 EGKA 220950Z 22007KT 6000 BKN013 09/08 Q1029 SW (220°) 8.1mph 9°C 8°C
22/03/19 09:20 EGKA 220920Z 21006KT 5000 HZ BKN009 09/08 Q1029 HZ SSW (210°) 6.9mph 9°C 8°C
22/03/19 08:50 EGKA 220850Z 20006KT 6000 SCT009 BKN012 09/08 Q1029 SSW (200°) 6.9mph 9°C 8°C
22/03/19 08:20 EGKA 220820Z 21006KT 5000 HZ SCT008 BKN010 09/08 Q1029 HZ SSW (210°) 6.9mph 9°C 8°C
22/03/19 07:50 EGKA 220750Z 20005KT 5000 HZ BKN009 09/08 Q1029 HZ SSW (200°) 5.8mph 9°C 8°C
21/03/19 19:20 EGKA 211920Z 14002KT 9999 BKN023 09/09 Q1032 SE (140°) 2.3mph 9°C 9°C
21/03/19 18:20 EGKA 211820Z 17003KT 5000 HZ BKN023 09/09 Q1032 HZ S (170°) 3.5mph 9°C 9°C
21/03/19 17:50 EGKA 211750Z 18003KT 6000 BKN023 10/09 Q1032 S (180°) 3.5mph 10°C 9°C
21/03/19 17:20 EGKA 211720Z 21004KT 7000 BKN022 10/09 Q1032 SSW (210°) 4.6mph 10°C 9°C
21/03/19 16:50 EGKA 211650Z 21006KT 8000 BKN022 10/09 Q1032 SSW (210°) 6.9mph 10°C 9°C
21/03/19 16:20 EGKA 211620Z 21006KT 9000 BKN022 10/09 Q1032 SSW (210°) 6.9mph 10°C 9°C
21/03/19 15:50 EGKA 211550Z 21007KT 9999 BKN023 10/09 Q1032 SSW (210°) 8.1mph 10°C 9°C
21/03/19 15:20 EGKA 211520Z 20006KT 9999 BKN023 10/09 Q1032 SSW (200°) 6.9mph 10°C 9°C
21/03/19 14:50 EGKA 211450Z 20006KT 9999 BKN020 11/09 Q1033 SSW (200°) 6.9mph 11°C 9°C
21/03/19 13:50 EGKA 211350Z 20007KT 9999 FEW011 BKN017 11/09 Q1033 SSW (200°) 8.1mph 11°C 9°C
21/03/19 13:20 EGKA 211320Z 21007KT 9000 SCT013 BKN018 11/09 Q1033 SSW (210°) 8.1mph 11°C 9°C
21/03/19 12:50 EGKA 211250Z 19007KT 8000 SCT013 BKN016 11/09 Q1034 S (190°) 8.1mph 11°C 9°C
21/03/19 12:20 EGKA 211220Z 20007KT 8000 BKN015 11/09 Q1034 SSW (200°) 8.1mph 11°C 9°C
21/03/19 11:50 EGKA 211150Z 21007KT 9999 BKN015 11/09 Q1034 SSW (210°) 8.1mph 11°C 9°C
21/03/19 11:20 EGKA 211120Z 21005KT 9999 BKN014 11/09 Q1034 SSW (210°) 5.8mph 11°C 9°C
21/03/19 10:50 EGKA 211050Z 29005KT 9999 FEW014 BKN018 11/08 Q1034 WNW (290°) 5.8mph 11°C 8°C
21/03/19 10:20 EGKA 211020Z 27006KT 9999 SCT014 BKN018 11/08 Q1034 W (270°) 6.9mph 11°C 8°C
21/03/19 09:50 EGKA 210950Z 28005KT 8000 BKN014 11/08 Q1034 W (280°) 5.8mph 11°C 8°C
21/03/19 09:20 EGKA 210920Z 26004KT 8000 SCT011 BKN017 11/08 Q1034 W (260°) 4.6mph 11°C 8°C
21/03/19 08:50 EGKA 210850Z 29004KT 6000 SCT008 BKN018 10/09 Q1034 WNW (290°) 4.6mph 10°C 9°C
21/03/19 08:20 EGKA 210820Z 25005KT 5000 HZ SCT007 BKN009 10/09 Q1034 HZ WSW (250°) 5.8mph 10°C 9°C
21/03/19 07:50 EGKA 210750Z 27004KT 4500 HZ SCT006 BKN022 10/09 Q1034 HZ W (270°) 4.6mph 10°C 9°C
20/03/19 19:50 EGKA 201950Z 23008KT 9999 BKN010 10/08 Q1034 SW (230°) 9.2mph 10°C 8°C
20/03/19 18:50 EGKA 201850Z 22009KT 9999 FEW008 BKN013 10/08 Q1034 SW (220°) 10.4mph 10°C 8°C
20/03/19 18:20 EGKA 201820Z 22008KT 9999 SCT005 BKN016 10/09 Q1033 SW (220°) 9.2mph 10°C 9°C
20/03/19 17:50 EGKA 201750Z 21008KT 9999 FEW007 BKN015 10/09 Q1033 SSW (210°) 9.2mph 10°C 9°C
20/03/19 17:20 EGKA 201720Z 22008KT 9999 FEW008 BKN015 10/09 Q1033 SW (220°) 9.2mph 10°C 9°C
20/03/19 16:50 EGKA 201650Z 22007KT 9999 FEW008 BKN016 10/09 Q1033 SW (220°) 8.1mph 10°C 9°C
20/03/19 15:50 EGKA 201550Z 21008KT 9999 FEW008 BKN016 11/09 Q1033 SSW (210°) 9.2mph 11°C 9°C
20/03/19 15:20 EGKA 201520Z 21007KT 9999 FEW008 BKN018 11/09 Q1033 SSW (210°) 8.1mph 11°C 9°C
20/03/19 14:50 EGKA 201450Z 21009KT 9999 FEW008 SCT015 11/09 Q1033 SSW (210°) 10.4mph 11°C 9°C
20/03/19 14:20 EGKA 201420Z 21009KT 9999 FEW008 SCT017 11/10 Q1033 SSW (210°) 10.4mph 11°C 10°C
20/03/19 13:20 EGKA 201320Z 20010KT 9999 4000E VCFG FEW001 SCT030 12/10 Q1033 VCFG SSW (200°) 11.5mph 12°C 10°C
20/03/19 12:50 EGKA 201250Z 21012KT 9999 FEW009 SCT030 12/10 Q1033 SSW (210°) 13.8mph 12°C 10°C
20/03/19 12:20 EGKA 201220Z 21013KT 9999 FEW012 SCT030 13/10 Q1033 SSW (210°) 15.0mph 13°C 10°C
20/03/19 11:20 EGKA 201120Z 26008KT 9999 FEW012 SCT017 14/11 Q1033 W (260°) 9.2mph 14°C 11°C
20/03/19 10:50 EGKA 201050Z 25010KT 9999 SCT012 SCT017 13/09 Q1033 WSW (250°) 11.5mph 13°C 9°C
20/03/19 10:20 EGKA 201020Z 26007KT 9999 FEW008 BKN018 12/09 Q1033 W (260°) 8.1mph 12°C 9°C
20/03/19 09:50 EGKA 200950Z 23005KT 8000 FEW008 BKN018 11/10 Q1033 SW (230°) 5.8mph 11°C 10°C
19/03/19 19:50 EGKA 191950Z 22006KT 9000 BKN040 09/09 Q1030 SW (220°) 6.9mph 9°C 9°C
19/03/19 19:20 EGKA 191920Z 20006KT 9000 BKN040 09/09 Q1030 SSW (200°) 6.9mph 9°C 9°C
19/03/19 18:50 EGKA 191850Z 24006KT 9999 FEW010 BKN040 10/09 Q1030 WSW (240°) 6.9mph 10°C 9°C
19/03/19 18:20 EGKA 191820Z 24005KT 9999 FEW010 BKN041 10/09 Q1029 WSW (240°) 5.8mph 10°C 9°C
19/03/19 17:20 EGKA 191720Z 23009KT 9999 FEW010 BKN041 10/09 Q1028 SW (230°) 10.4mph 10°C 9°C
19/03/19 16:50 EGKA 191650Z 24011KT 9999 FEW010 BKN044 10/08 Q1028 WSW (240°) 12.7mph 10°C 8°C
19/03/19 16:20 EGKA 191620Z 22010KT 9999 FEW016 BKN045 10/09 Q1028 SW (220°) 11.5mph 10°C 9°C
19/03/19 15:50 EGKA 191550Z 21010KT 9999 FEW015 BKN037 10/08 Q1028 SSW (210°) 11.5mph 10°C 8°C
19/03/19 14:50 EGKA 191450Z 22010KT 9999 FEW018 BKN037 11/08 Q1028 SW (220°) 11.5mph 11°C 8°C
19/03/19 14:20 EGKA 191420Z 22011KT 9999 FEW018 BKN037 11/09 Q1028 SW (220°) 12.7mph 11°C 9°C
19/03/19 13:50 EGKA 191350Z 21010KT 9999 FEW018 BKN042 10/08 Q1028 SSW (210°) 11.5mph 10°C 8°C
19/03/19 12:50 EGKA 191250Z 22010KT 9999 FEW015 SCT046 11/09 Q1028 SW (220°) 11.5mph 11°C 9°C
19/03/19 12:20 EGKA 191220Z 22013KT 9999 FEW015 SCT040 12/08 Q1028 SW (220°) 15.0mph 12°C 8°C
19/03/19 11:50 EGKA 191150Z 22010KT 9999 SCT015 12/09 Q1028 SW (220°) 11.5mph 12°C 9°C
19/03/19 10:50 EGKA 191050Z 19009KT 9999 FEW014 SCT029 11/09 Q1028 S (190°) 10.4mph 11°C 9°C
19/03/19 09:50 EGKA 190950Z 21005KT 9000 FEW014 BKN029 10/08 Q1028 SSW (210°) 5.8mph 10°C 8°C
19/03/19 09:20 EGKA 190920Z 21008KT 9999 BKN029 09/08 Q1027 SSW (210°) 9.2mph 9°C 8°C
19/03/19 08:50 EGKA 190850Z 24003KT 9999 SCT035 09/08 Q1027 WSW (240°) 3.5mph 9°C 8°C
19/03/19 08:20 EGKA 190820Z 23004KT 9999 SCT032 08/08 Q1027 SW (230°) 4.6mph 8°C 8°C
19/03/19 07:50 EGKA 190750Z 21002KT 9999 SCT032 07/07 Q1027 SSW (210°) 2.3mph 7°C 7°C
18/03/19 19:50 EGKA 181950Z 04002KT 9999 SCT040 06/05 Q1023 NE (40°) 2.3mph 6°C 5°C
18/03/19 19:20 EGKA 181920Z 00000KT 9999 SCT040 06/05 Q1023 N (0°) 6°C 5°C
18/03/19 18:20 EGKA 181820Z 30003KT 9999 SCT016 07/04 Q1023 WNW (300°) 3.5mph 7°C 4°C
18/03/19 17:50 EGKA 181750Z 25008KT 9999 VCSH FEW007 SCT028CB BKN032 08/06 Q1022 VCSH WSW (250°) 9.2mph 8°C 6°C
18/03/19 17:20 EGKA 181720Z 23007KT 9999 -SHRA FEW018 SCT035 08/06 Q1022 -SHRA SW (230°) 8.1mph 8°C 6°C
18/03/19 16:50 EGKA 181650Z 25011KT 9999 VCSH FEW018 SCT035 09/06 Q1022 VCSH WSW (250°) 12.7mph 9°C 6°C
18/03/19 16:20 EGKA 181620Z 26009KT 9999 VCSH FEW024CB SCT035 09/06 Q1021 VCSH W (260°) 10.4mph 9°C 6°C
18/03/19 15:50 EGKA 181550Z 22002KT 9999 VCSH FEW024CB SCT035 10/05 Q1021 VCSH SW (220°) 2.3mph 10°C 5°C
18/03/19 15:20 EGKA 181520Z 22002KT 9999 VCSH FEW024CB SCT035 10/07 Q1021 VCSH SW (220°) 2.3mph 10°C 7°C
18/03/19 14:50 EGKA 181450Z 11004KT 9999 VCSH FEW023CB BKN035 09/06 Q1021 VCSH ESE (110°) 4.6mph 9°C 6°C
18/03/19 13:50 EGKA 181350Z 18005KT 9999 VCSH FEW025CB SCT034 09/06 Q1021 VCSH S (180°) 5.8mph 9°C 6°C
18/03/19 13:20 EGKA 181320Z 02003KT 9999 VCSH FEW025CB SCT034 09/03 Q1021 VCSH NNE (20°) 3.5mph 9°C 3°C
18/03/19 12:50 EGKA 181250Z 26010KT 9999 -SHRA FEW025CB SCT034 09/03 Q1021 -SHRA W (260°) 11.5mph 9°C 3°C
18/03/19 12:20 EGKA 181220Z 21011KT 9999 SCT029 10/05 Q1021 SSW (210°) 12.7mph 10°C 5°C
18/03/19 11:20 EGKA 181120Z 29007KT 9999 FEW026 10/04 Q1021 WNW (290°) 8.1mph 10°C 4°C
18/03/19 10:20 EGKA 181020Z 28008KT 9999 FEW030 09/03 Q1021 W (280°) 9.2mph 9°C 3°C
18/03/19 09:50 EGKA 180950Z 27010KT 9999 FEW030 09/02 Q1021 W (270°) 11.5mph 9°C 2°C
18/03/19 09:20 EGKA 180920Z 28009KT 9999 FEW030 07/03 Q1021 W (280°) 10.4mph 7°C 3°C
17/03/19 18:20 EGKA 171820Z 27012G22KT 9999 FEW045 07/M01 Q1011 W (270°) 13.8mph 25.3mph 7°C -1°C
17/03/19 17:50 EGKA 171750Z 27014G25KT 9999 FEW045 08/M02 Q1010 W (270°) 16.1mph 28.8mph 8°C -2°C
17/03/19 17:20 EGKA 171720Z 26016G26KT 9999 FEW045 09/M03 Q1009 W (260°) 18.4mph 29.9mph 9°C -3°C
17/03/19 16:50 EGKA 171650Z 27018G28KT 9999 FEW045 09/M03 Q1009 W (270°) 20.7mph 32.2mph 9°C -3°C
17/03/19 15:50 EGKA 171550Z 24017G27KT CAVOK 09/02 Q1008 WSW (240°) 19.6mph 31.1mph 9°C 2°C
17/03/19 15:20 EGKA 171520Z 25018G28KT CAVOK 11/M02 Q1008 WSW (250°) 20.7mph 32.2mph 11°C -2°C
17/03/19 14:20 EGKA 171420Z 26018KT CAVOK 10/M02 Q1008 W (260°) 20.7mph 10°C -2°C
17/03/19 13:50 EGKA 171350Z 26014KT CAVOK 10/00 Q1008 W (260°) 16.1mph 10°C 0°C
17/03/19 13:20 EGKA 171320Z 25017KT 9999 -SHRA SCT049 09/M01 Q1007 -SHRA WSW (250°) 19.6mph 9°C -1°C
17/03/19 12:50 EGKA 171250Z 26014G24KT 9999 SCT045 10/00 Q1007 W (260°) 16.1mph 27.6mph 10°C 0°C
17/03/19 12:20 EGKA 171220Z 26015G25KT 9999 SCT043 09/M00 Q1007 W (260°) 17.3mph 28.8mph 9°C 0°C
17/03/19 11:50 EGKA 171150Z 26017G27KT 9999 SCT032 09/00 Q1007 W (260°) 19.6mph 31.1mph 9°C 0°C
17/03/19 11:20 EGKA 171120Z 28017KT 9999 SCT032 09/01 Q1007 W (280°) 19.6mph 9°C 1°C
17/03/19 10:50 EGKA 171050Z 27015KT 9999 SCT032 09/03 Q1006 W (270°) 17.3mph 9°C 3°C
17/03/19 10:20 EGKA 171020Z 26016KT 9999 FEW030 08/02 Q1006 W (260°) 18.4mph 8°C 2°C
17/03/19 09:50 EGKA 170950Z 26014KT 9999 FEW022 08/02 Q1006 W (260°) 16.1mph 8°C 2°C
17/03/19 08:50 EGKA 170850Z 26012KT 9999 FEW018 06/03 Q1005 W (260°) 13.8mph 6°C 3°C
16/03/19 19:50 EGKA 161950Z 21026G36KT 9999 BKN021 10/07 Q0998 SSW (210°) 29.9mph 41.4mph 10°C 7°C
16/03/19 19:20 EGKA 161920Z 21027G37KT 9000 BKN020 10/07 Q0999 SSW (210°) 31.1mph 42.6mph 10°C 7°C
16/03/19 18:50 EGKA 161850Z 22027G37KT 9000 BKN023 10/07 Q0999 SW (220°) 31.1mph 42.6mph 10°C 7°C
16/03/19 18:20 EGKA 161820Z 22028G38KT 9000 BKN024 10/07 Q1000 SW (220°) 32.2mph 43.7mph 10°C 7°C
16/03/19 17:50 EGKA 161750Z 22028G38KT 9000 BKN033 10/07 Q1000 SW (220°) 32.2mph 43.7mph 10°C 7°C
16/03/19 17:20 EGKA 161720Z 22028G40KT 7000 FEW012 BKN039 10/07 Q1001 SW (220°) 32.2mph 46.0mph 10°C 7°C
16/03/19 16:50 EGKA 161650Z 22026G36KT 7000 FEW012 BKN039 10/07 Q1001 SW (220°) 29.9mph 41.4mph 10°C 7°C
16/03/19 16:20 EGKA 161620Z 22027G38KT 6000 FEW012 BKN018 10/07 Q1002 SW (220°) 31.1mph 43.7mph 10°C 7°C
16/03/19 15:50 EGKA 161550Z 22028G38KT 6000 FEW012 BKN018 10/07 Q1002 SW (220°) 32.2mph 43.7mph 10°C 7°C
16/03/19 14:50 EGKA 161450Z 22023KT 7000 FEW012 BKN017 10/08 Q1003 SW (220°) 26.5mph 10°C 8°C
16/03/19 14:20 EGKA 161420Z 22024G34KT 7000 -DZ FEW009 BKN020 10/08 Q1004 -DZ SW (220°) 27.6mph 39.1mph 10°C 8°C
16/03/19 13:20 EGKA 161320Z 22024KT 7000 SCT009 BKN015 10/08 Q1005 SW (220°) 27.6mph 10°C 8°C
16/03/19 12:50 EGKA 161250Z 23023KT 8000 SCT010 BKN032 10/08 Q1005 SW (230°) 26.5mph 10°C 8°C
16/03/19 12:20 EGKA 161220Z 23024G35KT 8000 SCT010 BKN034 10/08 Q1006 SW (230°) 27.6mph 40.3mph 10°C 8°C
16/03/19 11:50 EGKA 161150Z 22028G38KT 5000 SCT008 BKN030 10/08 Q1006 SW (220°) 32.2mph 43.7mph 10°C 8°C
16/03/19 11:20 EGKA 161120Z 22025G36KT 5000 SCT008 BKN035 10/08 Q1006 SW (220°) 28.8mph 41.4mph 10°C 8°C
16/03/19 10:20 EGKA 161020Z 23017G29KT 1900 -RADZ SCT003 BKN012 10/09 Q1007 -RA -DZ SW (230°) 19.6mph 33.4mph 10°C 9°C
16/03/19 09:50 EGKA 160950Z 23024KT 9999 BKN030 10/08 Q1007 SW (230°) 27.6mph 10°C 8°C